createdAt,value
2018-10-06T00:00:32.381Z,18.21
2018-10-06T00:03:00.672Z,18.21
2018-10-06T00:05:28.982Z,18.06
2018-10-06T00:07:57.313Z,18.10
2018-10-06T00:10:25.605Z,18.64
2018-10-06T00:12:53.923Z,18.57
2018-10-06T00:15:22.209Z,18.45
2018-10-06T00:17:50.500Z,18.91
2018-10-06T00:20:18.785Z,19.08
2018-10-06T00:22:47.072Z,18.65
2018-10-06T00:25:15.390Z,18.06
2018-10-06T00:27:43.677Z,17.97
2018-10-06T00:30:11.968Z,17.81
2018-10-06T00:32:40.252Z,17.79
2018-10-06T00:35:08.532Z,16.74
2018-10-06T00:37:36.872Z,17.25
2018-10-06T00:40:05.228Z,16.92
2018-10-06T00:42:33.636Z,17.36
2018-10-06T00:45:02.159Z,17.35
2018-10-06T00:47:30.586Z,17.29
2018-10-06T00:49:59.011Z,17.20
2018-10-06T00:52:27.440Z,17.07
2018-10-06T00:54:55.856Z,17.28
2018-10-06T00:57:24.369Z,17.21
2018-10-06T00:59:52.820Z,17.29
2018-10-06T01:02:21.306Z,17.16
2018-10-06T01:04:49.752Z,17.21
2018-10-06T01:07:18.232Z,16.87
2018-10-06T01:09:46.688Z,16.88
2018-10-06T01:12:15.207Z,16.44
2018-10-06T01:14:43.588Z,16.72
2018-10-06T01:17:12.068Z,16.54
2018-10-06T01:19:40.443Z,16.91
2018-10-06T01:22:08.938Z,16.83
2018-10-06T01:24:37.384Z,16.26
2018-10-06T01:27:05.863Z,16.16
2018-10-06T01:29:34.460Z,16.28
2018-10-06T01:32:04.408Z,16.36
2018-10-06T01:34:33.056Z,16.54
2018-10-06T01:37:01.701Z,16.56
2018-10-06T01:39:30.677Z,16.63
2018-10-06T01:41:59.160Z,16.62
2018-10-06T01:44:27.641Z,16.38
2018-10-06T01:46:56.068Z,16.60
2018-10-06T01:49:24.652Z,16.59
2018-10-06T01:51:53.104Z,15.88
2018-10-06T01:54:21.531Z,16.49
2018-10-06T01:56:50.004Z,16.36
2018-10-06T01:59:18.501Z,16.38
2018-10-06T02:01:46.923Z,16.12
2018-10-06T02:04:15.335Z,16.01
2018-10-06T02:06:43.769Z,16.07
2018-10-06T02:09:12.169Z,15.86
2018-10-06T02:11:40.648Z,15.74
2018-10-06T02:14:09.068Z,15.76
2018-10-06T02:16:37.532Z,15.77
2018-10-06T02:19:05.934Z,15.64
2018-10-06T02:21:34.267Z,15.60
2018-10-06T02:24:02.696Z,15.42
2018-10-06T02:26:31.143Z,15.50
2018-10-06T02:28:59.562Z,15.51
2018-10-06T02:31:27.973Z,15.65
2018-10-06T02:33:56.439Z,15.65
2018-10-06T02:36:24.921Z,15.64
2018-10-06T02:38:53.408Z,15.69
2018-10-06T02:41:21.871Z,15.51
2018-10-06T02:43:50.308Z,15.67
2018-10-06T02:46:18.681Z,15.82
2018-10-06T02:48:47.072Z,15.58
2018-10-06T02:51:15.469Z,15.79
2018-10-06T02:53:43.889Z,15.88
2018-10-06T02:56:12.641Z,16.03
2018-10-06T02:58:41.172Z,15.97
2018-10-06T03:01:10.208Z,16.07
2018-10-06T03:03:38.747Z,15.97
2018-10-06T03:06:07.208Z,15.96
2018-10-06T03:08:35.620Z,16.00
2018-10-06T03:11:04.012Z,15.93
2018-10-06T03:13:32.464Z,16.01
2018-10-06T03:16:00.893Z,16.06
2018-10-06T03:18:29.414Z,15.99
2018-10-06T03:20:57.960Z,16.06
2018-10-06T03:23:26.412Z,15.96
2018-10-06T03:25:54.911Z,15.95
2018-10-06T03:28:23.367Z,15.73
2018-10-06T03:30:51.764Z,15.61
2018-10-06T03:33:20.234Z,15.70
2018-10-06T03:35:48.697Z,15.82
2018-10-06T03:38:17.163Z,15.80
2018-10-06T03:40:45.572Z,15.73
2018-10-06T03:43:13.980Z,15.62
2018-10-06T03:45:42.379Z,15.73
2018-10-06T03:48:10.848Z,15.69
2018-10-06T03:50:39.432Z,15.60
2018-10-06T03:53:07.833Z,15.66
2018-10-06T03:55:36.261Z,15.54
2018-10-06T03:58:04.759Z,15.65
2018-10-06T04:00:33.144Z,15.60
2018-10-06T04:03:01.612Z,15.38
2018-10-06T04:05:30.008Z,15.51
2018-10-06T04:07:59.228Z,15.16
2018-10-06T04:10:27.676Z,15.36
2018-10-06T04:12:56.012Z,15.26
2018-10-06T04:15:24.404Z,15.47
2018-10-06T04:17:52.800Z,15.52
2018-10-06T04:20:21.213Z,15.41
2018-10-06T04:22:49.565Z,15.43
2018-10-06T04:25:19.076Z,15.34
2018-10-06T04:27:47.464Z,15.36
2018-10-06T04:30:15.890Z,15.54
2018-10-06T04:32:44.299Z,15.65
2018-10-06T04:35:12.829Z,15.71
2018-10-06T04:37:41.225Z,15.65
2018-10-06T04:40:09.625Z,15.70
2018-10-06T04:42:38.075Z,15.78
2018-10-06T04:45:06.432Z,15.82
2018-10-06T04:47:35.057Z,15.89
2018-10-06T04:50:03.433Z,15.75
2018-10-06T04:52:31.798Z,15.66
2018-10-06T04:55:00.124Z,15.70
2018-10-06T04:57:28.604Z,15.69
2018-10-06T04:59:57.356Z,15.68
2018-10-06T05:02:25.861Z,15.83
2018-10-06T05:04:54.208Z,15.70
2018-10-06T05:07:22.556Z,15.88
2018-10-06T05:09:50.913Z,15.80
2018-10-06T05:12:19.271Z,15.78
2018-10-06T05:14:47.711Z,15.86
2018-10-06T05:17:16.120Z,15.93
2018-10-06T05:19:44.423Z,16.02
2018-10-06T05:22:12.750Z,15.89
2018-10-06T05:24:41.096Z,16.00
2018-10-06T05:27:09.461Z,15.98
2018-10-06T05:29:37.872Z,15.77
2018-10-06T05:32:06.332Z,15.87
2018-10-06T05:34:34.745Z,15.67
2018-10-06T05:37:03.052Z,15.70
2018-10-06T05:39:31.356Z,15.34
2018-10-06T05:41:59.648Z,15.81
2018-10-06T05:44:27.936Z,15.54
2018-10-06T05:46:56.225Z,16.06
2018-10-06T05:49:24.528Z,15.84
2018-10-06T05:51:52.824Z,15.82
2018-10-06T05:54:21.148Z,16.34
2018-10-06T05:56:49.445Z,16.41
2018-10-06T05:59:17.732Z,16.16
2018-10-06T06:01:46.033Z,16.07
2018-10-06T06:04:14.311Z,16.44
2018-10-06T06:06:42.609Z,16.34
2018-10-06T06:09:10.910Z,16.54
2018-10-06T06:11:39.212Z,16.58
2018-10-06T06:14:07.601Z,16.29
2018-10-06T06:16:35.944Z,16.12
2018-10-06T06:19:04.265Z,16.19
2018-10-06T06:21:32.601Z,16.30
2018-10-06T06:24:01.084Z,16.01
2018-10-06T06:26:29.341Z,16.26
2018-10-06T06:28:57.664Z,15.98
2018-10-06T06:31:25.984Z,16.13
2018-10-06T06:33:54.287Z,17.47
2018-10-06T06:36:22.586Z,18.77
2018-10-06T06:38:50.871Z,19.71
2018-10-06T06:41:19.173Z,21.25
2018-10-06T06:43:47.602Z,22.06
2018-10-06T06:46:15.973Z,22.82
2018-10-06T06:48:44.270Z,23.56
2018-10-06T06:51:12.664Z,23.52
2018-10-06T06:53:41.077Z,22.43
2018-10-06T06:56:09.536Z,21.94
2018-10-06T06:58:38.083Z,21.74
2018-10-06T07:01:06.620Z,20.88
2018-10-06T07:03:35.064Z,21.33
2018-10-06T07:06:03.474Z,21.13
2018-10-06T07:08:31.867Z,20.29
2018-10-06T07:11:00.362Z,20.20
2018-10-06T07:13:28.834Z,20.58
2018-10-06T07:15:57.524Z,20.73
2018-10-06T07:18:25.933Z,20.71
2018-10-06T07:20:54.307Z,20.81
2018-10-06T07:23:22.740Z,20.88
2018-10-06T07:25:51.154Z,20.60
2018-10-06T07:28:19.569Z,20.55
2018-10-06T07:30:48.001Z,20.72
2018-10-06T07:33:16.385Z,20.85
2018-10-06T07:35:44.807Z,20.92
2018-10-06T07:38:13.311Z,21.20
2018-10-06T07:40:41.815Z,21.20
2018-10-06T07:43:10.353Z,21.18
2018-10-06T07:45:38.875Z,21.01
2018-10-06T07:48:07.388Z,20.82
2018-10-06T07:50:35.925Z,20.72
2018-10-06T07:53:04.507Z,21.49
2018-10-06T07:55:32.997Z,21.49
2018-10-06T07:58:01.438Z,20.58
2018-10-06T08:00:29.908Z,21.03
2018-10-06T08:02:58.481Z,21.33
2018-10-06T08:05:27.037Z,21.19
2018-10-06T08:07:55.491Z,21.54
2018-10-06T08:10:24.004Z,21.54
2018-10-06T08:12:52.656Z,21.64
2018-10-06T08:15:21.134Z,22.06
2018-10-06T08:17:49.618Z,22.85
2018-10-06T08:20:18.009Z,23.40
2018-10-06T08:22:46.530Z,24.37
2018-10-06T08:25:15.055Z,26.61
2018-10-06T08:27:43.661Z,27.63
2018-10-06T08:30:12.210Z,27.86
2018-10-06T08:32:40.740Z,28.72
2018-10-06T08:35:09.276Z,29.83
2018-10-06T08:37:37.808Z,29.46
2018-10-06T08:40:06.381Z,29.93
2018-10-06T08:42:34.944Z,30.99
2018-10-06T08:45:03.497Z,31.47
2018-10-06T08:47:32.086Z,31.44
2018-10-06T08:50:00.656Z,31.20
2018-10-06T08:52:35.921Z,31.38
2018-10-06T08:55:04.548Z,31.46
2018-10-06T08:57:32.997Z,32.02
2018-10-06T09:00:01.471Z,30.60
2018-10-06T09:02:29.960Z,31.03
2018-10-06T09:04:58.347Z,32.29
2018-10-06T09:07:26.837Z,32.42
2018-10-06T09:09:55.200Z,32.90
2018-10-06T09:12:23.568Z,32.52
2018-10-06T09:14:52.229Z,33.07
2018-10-06T09:17:20.716Z,31.63
2018-10-06T09:19:49.233Z,32.21
2018-10-06T09:22:17.707Z,32.32
2018-10-06T09:24:46.270Z,31.89
2018-10-06T09:27:14.635Z,32.01
2018-10-06T09:29:42.980Z,31.74
2018-10-06T09:32:11.320Z,30.90
2018-10-06T09:34:39.632Z,31.13
2018-10-06T09:37:07.930Z,30.21
2018-10-06T09:39:36.236Z,29.75
2018-10-06T09:42:04.748Z,29.97
2018-10-06T09:44:33.048Z,29.33
2018-10-06T09:47:01.360Z,29.18
2018-10-06T09:49:29.649Z,29.83
2018-10-06T09:51:57.962Z,29.10
2018-10-06T09:54:26.274Z,29.68
2018-10-06T09:56:54.573Z,28.25
2018-10-06T09:59:22.887Z,28.43
2018-10-06T10:01:56.167Z,28.92
2018-10-06T10:04:24.470Z,28.05
2018-10-06T10:06:52.779Z,27.80
2018-10-06T10:09:21.090Z,28.17
2018-10-06T10:11:49.420Z,28.97
2018-10-06T10:14:17.785Z,28.96
2018-10-06T10:16:46.416Z,29.14
2018-10-06T10:19:14.786Z,30.27
2018-10-06T10:21:43.123Z,30.44
2018-10-06T10:24:11.431Z,29.71
2018-10-06T10:26:39.753Z,28.53
2018-10-06T10:29:08.172Z,28.88
2018-10-06T10:31:36.671Z,28.61
2018-10-06T10:34:05.052Z,28.95
2018-10-06T10:36:33.451Z,28.49
2018-10-06T10:39:01.883Z,28.52
2018-10-06T10:41:30.329Z,28.58
2018-10-06T10:43:58.813Z,27.59
2018-10-06T10:46:27.288Z,28.38
2018-10-06T10:48:55.803Z,26.77
2018-10-06T10:51:24.328Z,26.49
2018-10-06T10:53:52.865Z,26.18
2018-10-06T10:56:21.363Z,26.01
2018-10-06T10:58:49.766Z,25.36
2018-10-06T11:01:18.280Z,25.84
2018-10-06T11:03:46.699Z,25.30
2018-10-06T11:06:15.225Z,25.28
2018-10-06T11:08:43.672Z,25.46
2018-10-06T11:11:12.189Z,25.45
2018-10-06T11:13:40.681Z,25.88
2018-10-06T11:16:09.206Z,26.05
2018-10-06T11:18:37.628Z,26.36
2018-10-06T11:21:06.028Z,27.83
2018-10-06T11:23:34.567Z,28.33
2018-10-06T11:26:03.122Z,28.91
2018-10-06T11:28:31.601Z,29.24
2018-10-06T11:31:00.067Z,29.89
2018-10-06T11:33:28.516Z,30.56
2018-10-06T11:35:56.972Z,31.62
2018-10-06T11:38:25.408Z,31.65
2018-10-06T11:40:54.020Z,31.46
2018-10-06T11:43:22.500Z,31.16
2018-10-06T11:45:50.916Z,30.60
2018-10-06T11:48:19.378Z,30.51
2018-10-06T11:50:47.808Z,31.02
2018-10-06T11:53:16.410Z,31.37
2018-10-06T11:55:44.820Z,31.82
2018-10-06T11:58:13.291Z,31.87
2018-10-06T12:00:41.767Z,32.35
2018-10-06T12:03:10.350Z,32.80
2018-10-06T12:05:38.891Z,32.51
2018-10-06T12:08:07.360Z,31.17
2018-10-06T12:10:35.814Z,30.54
2018-10-06T12:13:04.308Z,31.01
2018-10-06T12:15:32.827Z,30.63
2018-10-06T12:18:01.324Z,30.70
2018-10-06T12:20:29.777Z,31.63
2018-10-06T12:22:58.265Z,31.11
2018-10-06T12:25:26.636Z,29.88
2018-10-06T12:27:55.028Z,30.14
2018-10-06T12:30:23.480Z,30.49
2018-10-06T12:32:52.149Z,30.99
2018-10-06T12:35:20.940Z,30.24
2018-10-06T12:37:49.311Z,30.75
2018-10-06T12:40:17.712Z,30.36
2018-10-06T12:42:46.168Z,28.72
2018-10-06T12:45:14.744Z,28.05
2018-10-06T12:47:43.248Z,27.91
2018-10-06T12:50:11.698Z,27.56
2018-10-06T12:52:40.204Z,26.99
2018-10-06T12:55:08.696Z,26.66
2018-10-06T12:57:37.140Z,27.16
2018-10-06T13:00:05.756Z,26.92
2018-10-06T13:02:34.552Z,27.15
2018-10-06T13:05:03.042Z,27.38
2018-10-06T13:07:31.633Z,26.54
2018-10-06T13:10:00.228Z,26.25
2018-10-06T13:12:28.709Z,26.31
2018-10-06T13:14:57.265Z,25.94
2018-10-06T13:17:25.856Z,26.37
2018-10-06T13:19:54.339Z,26.09
2018-10-06T13:22:22.812Z,26.24
2018-10-06T13:24:51.259Z,26.43
2018-10-06T13:27:19.716Z,25.77
2018-10-06T13:29:48.142Z,25.99
2018-10-06T13:32:16.516Z,26.10
2018-10-06T13:34:44.963Z,25.81
2018-10-06T13:37:13.372Z,25.71
2018-10-06T13:39:41.892Z,25.28
2018-10-06T13:42:10.380Z,25.40
2018-10-06T13:44:38.822Z,25.18
2018-10-06T13:47:07.404Z,25.11
2018-10-06T13:49:35.833Z,24.93
2018-10-06T13:52:04.315Z,25.60
2018-10-06T13:54:32.745Z,25.38
2018-10-06T13:57:01.156Z,25.30
2018-10-06T13:59:35.884Z,25.23
2018-10-06T14:02:04.304Z,24.56
2018-10-06T14:04:33.043Z,24.46
2018-10-06T14:07:01.572Z,24.29
2018-10-06T14:09:30.034Z,24.49
2018-10-06T14:11:58.494Z,24.65
2018-10-06T14:14:26.919Z,24.05
2018-10-06T14:16:55.340Z,24.74
2018-10-06T14:19:23.784Z,24.60
2018-10-06T14:21:52.216Z,24.50
2018-10-06T14:24:20.662Z,24.48
2018-10-06T14:26:49.101Z,24.76
2018-10-06T14:29:17.573Z,23.97
2018-10-06T14:31:46.016Z,24.06
2018-10-06T14:34:14.443Z,24.41
2018-10-06T14:36:42.913Z,24.45
2018-10-06T14:39:11.712Z,24.01
2018-10-06T14:41:40.060Z,24.22
2018-10-06T14:44:08.460Z,24.33
2018-10-06T14:46:36.757Z,23.89
2018-10-06T14:49:05.096Z,24.02
2018-10-06T14:51:33.411Z,24.02
2018-10-06T14:54:01.776Z,24.08
2018-10-06T14:56:30.135Z,23.89
2018-10-06T14:58:58.500Z,23.86
2018-10-06T15:01:26.846Z,24.18
2018-10-06T15:03:55.155Z,24.00
2018-10-06T15:06:23.495Z,24.41
2018-10-06T15:08:51.778Z,24.11
2018-10-06T15:11:20.060Z,23.94
2018-10-06T15:13:48.386Z,24.39
2018-10-06T15:16:16.721Z,24.40
2018-10-06T15:18:45.103Z,24.18
2018-10-06T15:21:13.441Z,24.69
2018-10-06T15:23:41.760Z,24.19
2018-10-06T15:26:10.058Z,24.24
2018-10-06T15:28:38.368Z,24.77
2018-10-06T15:31:06.722Z,24.37
2018-10-06T15:33:35.030Z,24.46
2018-10-06T15:36:03.443Z,24.54
2018-10-06T15:38:31.789Z,24.64
2018-10-06T15:41:00.300Z,24.35
2018-10-06T15:43:28.796Z,23.78
2018-10-06T15:45:57.316Z,23.82
2018-10-06T15:48:25.804Z,23.69
2018-10-06T15:50:54.333Z,23.62
2018-10-06T15:53:22.952Z,23.67
2018-10-06T15:55:51.494Z,23.31
2018-10-06T15:58:20.004Z,23.28
2018-10-06T16:00:48.534Z,23.28
2018-10-06T16:03:17.072Z,23.32
2018-10-06T16:05:45.511Z,23.15
2018-10-06T16:08:13.960Z,23.18
2018-10-06T16:10:42.436Z,23.23
2018-10-06T16:13:11.004Z,23.27
2018-10-06T16:15:39.447Z,23.60
2018-10-06T16:18:07.896Z,23.34
2018-10-06T16:20:36.382Z,23.48
2018-10-06T16:23:05.002Z,23.34
2018-10-06T16:25:33.523Z,22.88
2018-10-06T16:28:01.970Z,22.99
2018-10-06T16:30:30.477Z,23.17
2018-10-06T16:32:58.978Z,23.35
2018-10-06T16:35:27.465Z,23.17
2018-10-06T16:37:55.970Z,23.01
2018-10-06T16:40:24.360Z,23.16
2018-10-06T16:42:52.804Z,22.92
2018-10-06T16:45:21.252Z,23.34
2018-10-06T16:47:49.709Z,23.43
2018-10-06T16:50:18.108Z,23.08
2018-10-06T16:52:47.653Z,23.05
2018-10-06T16:55:16.062Z,22.87
2018-10-06T16:57:44.555Z,22.79
2018-10-06T17:00:13.216Z,21.96
2018-10-06T17:02:41.599Z,22.70
2018-10-06T17:05:10.076Z,22.43
2018-10-06T17:07:38.602Z,22.46
2018-10-06T17:10:07.500Z,22.79
2018-10-06T17:12:36.270Z,22.76
2018-10-06T17:15:04.856Z,22.23
2018-10-06T17:17:33.392Z,22.11
2018-10-06T17:20:01.852Z,22.52
2018-10-06T17:22:30.272Z,22.29
2018-10-06T17:24:58.715Z,22.19
2018-10-06T17:27:27.191Z,22.41
2018-10-06T17:29:55.687Z,21.79
2018-10-06T17:32:24.356Z,21.98
2018-10-06T17:34:52.812Z,22.33
2018-10-06T17:37:21.247Z,21.89
2018-10-06T17:39:49.745Z,21.81
2018-10-06T17:42:18.320Z,21.80
2018-10-06T17:44:46.793Z,21.66
2018-10-06T17:47:15.384Z,21.80
2018-10-06T17:49:44.178Z,22.25
2018-10-06T17:52:12.747Z,21.71
2018-10-06T17:54:42.130Z,21.79
2018-10-06T17:57:10.637Z,21.50
2018-10-06T17:59:39.163Z,21.38
2018-10-06T18:02:07.519Z,21.64
2018-10-06T18:04:35.984Z,21.29
2018-10-06T18:07:04.637Z,21.22
2018-10-06T18:09:33.017Z,22.10
2018-10-06T18:12:01.574Z,21.52
2018-10-06T18:14:29.965Z,21.11
2018-10-06T18:16:58.468Z,21.66
2018-10-06T18:19:26.960Z,21.31
2018-10-06T18:21:55.612Z,20.72
2018-10-06T18:24:24.160Z,21.04
2018-10-06T18:26:52.600Z,20.88
2018-10-06T18:29:21.200Z,20.64
2018-10-06T18:31:49.535Z,20.74
2018-10-06T18:34:17.953Z,20.76
2018-10-06T18:36:46.558Z,20.61
2018-10-06T18:39:15.111Z,20.69
2018-10-06T18:41:44.891Z,21.14
2018-10-06T18:44:14.674Z,20.76
2018-10-06T18:46:43.448Z,20.94
2018-10-06T18:49:12.182Z,21.61
2018-10-06T18:51:41.072Z,20.78
2018-10-06T18:54:12.337Z,20.90
2018-10-06T18:56:41.038Z,21.30
2018-10-06T18:59:09.813Z,21.24
2018-10-06T19:01:47.217Z,21.44
2018-10-06T19:04:37.741Z,20.91
2018-10-06T19:07:23.200Z,21.29
2018-10-06T19:16:41.945Z,21.67
2018-10-06T19:22:37.631Z,21.65
2018-10-06T19:31:23.156Z,21.82
2018-10-06T19:33:51.536Z,21.81
2018-10-06T19:36:19.914Z,21.41
2018-10-06T19:38:48.293Z,21.42
2018-10-06T19:41:16.700Z,21.24
2018-10-06T19:43:45.152Z,21.32
2018-10-06T19:46:13.622Z,20.53
2018-10-06T19:48:41.990Z,21.12
2018-10-06T19:51:10.357Z,21.30
2018-10-06T19:53:38.791Z,20.93
2018-10-06T19:56:07.141Z,21.05
2018-10-06T19:58:35.587Z,21.27
2018-10-06T20:01:03.883Z,20.99
2018-10-06T20:03:32.268Z,20.62
2018-10-06T20:06:00.749Z,20.84
2018-10-06T20:08:29.104Z,21.02
2018-10-06T20:10:57.552Z,20.68
2018-10-06T20:13:25.883Z,20.55
2018-10-06T20:15:54.189Z,20.81
2018-10-06T20:18:22.541Z,20.63
2018-10-06T20:20:50.891Z,20.80
2018-10-06T20:23:19.236Z,20.87
2018-10-06T20:25:47.581Z,20.80
2018-10-06T20:28:15.945Z,20.76
2018-10-06T20:30:44.232Z,20.58
2018-10-06T20:33:12.524Z,20.74
2018-10-06T20:35:40.832Z,20.56
2018-10-06T20:38:09.124Z,20.63
2018-10-06T20:40:37.488Z,20.69
2018-10-06T20:43:05.867Z,20.36
2018-10-06T20:45:34.204Z,20.34
2018-10-06T20:48:02.552Z,20.42
2018-10-06T20:50:30.897Z,20.55
2018-10-06T20:52:59.287Z,20.12
2018-10-06T20:55:27.622Z,20.32
2018-10-06T20:57:55.948Z,20.56
2018-10-06T21:00:24.440Z,20.56
2018-10-06T21:02:52.948Z,20.52
2018-10-06T21:05:21.467Z,20.43
2018-10-06T21:07:49.971Z,20.39
2018-10-06T21:10:18.471Z,20.44
2018-10-06T21:12:46.921Z,20.36
2018-10-06T21:15:15.404Z,20.28
2018-10-06T21:17:43.828Z,20.35
2018-10-06T21:20:12.284Z,20.34
2018-10-06T21:22:40.752Z,20.30
2018-10-06T21:25:09.332Z,20.27
2018-10-06T21:27:37.864Z,20.22
2018-10-06T21:30:06.318Z,20.32
2018-10-06T21:32:34.730Z,20.35
2018-10-06T21:35:03.190Z,20.31
2018-10-06T21:37:31.627Z,20.26
2018-10-06T21:40:00.197Z,20.06
2018-10-06T21:42:28.791Z,20.17
2018-10-06T21:44:57.527Z,20.21
2018-10-06T21:47:26.081Z,20.14
2018-10-06T21:49:54.625Z,20.20
2018-10-06T21:52:23.217Z,20.09
2018-10-06T21:54:51.854Z,20.16
2018-10-06T21:57:20.401Z,20.08
2018-10-06T21:59:48.888Z,20.07
2018-10-06T22:02:17.463Z,19.99
2018-10-06T22:04:46.068Z,20.02
2018-10-06T22:07:14.616Z,19.96
2018-10-06T22:09:43.149Z,20.02
2018-10-06T22:12:11.769Z,19.99
2018-10-06T22:14:40.244Z,19.68
2018-10-06T22:17:08.735Z,19.61
2018-10-06T22:19:37.181Z,20.01
2018-10-06T22:22:05.709Z,19.38
2018-10-06T22:24:34.180Z,19.33
2018-10-06T22:27:02.764Z,19.36
2018-10-06T22:29:31.225Z,19.42
2018-10-06T22:31:59.628Z,19.68
2018-10-06T22:34:28.072Z,19.43
2018-10-06T22:36:56.537Z,19.63
2018-10-06T22:39:24.960Z,19.91
2018-10-06T22:41:53.327Z,19.76
2018-10-06T22:44:21.769Z,20.08
2018-10-06T22:46:50.272Z,20.01
2018-10-06T22:49:18.749Z,20.10
2018-10-06T22:51:47.178Z,20.12
2018-10-06T22:54:15.890Z,20.13
2018-10-06T22:56:44.421Z,20.01
2018-10-06T22:59:12.907Z,19.88
2018-10-06T23:01:41.316Z,19.99
2018-10-06T23:04:09.755Z,19.95
2018-10-06T23:06:38.210Z,19.86
2018-10-06T23:09:08.358Z,19.84
2018-10-06T23:11:36.797Z,19.10
2018-10-06T23:14:05.210Z,19.26
2018-10-06T23:16:33.668Z,19.61
2018-10-06T23:19:02.123Z,19.60
2018-10-06T23:21:30.571Z,19.53
2018-10-06T23:23:59.389Z,19.69
2018-10-06T23:26:28.022Z,19.67
2018-10-06T23:28:56.420Z,19.61
2018-10-06T23:31:24.807Z,19.65
2018-10-06T23:33:53.221Z,19.64
2018-10-06T23:36:21.635Z,19.50
2018-10-06T23:38:50.096Z,19.41
2018-10-06T23:41:18.534Z,19.42
2018-10-06T23:43:46.964Z,19.42
2018-10-06T23:46:15.598Z,19.58
2018-10-06T23:48:44.084Z,19.46
2018-10-06T23:51:12.635Z,19.41
2018-10-06T23:53:41.153Z,19.42
2018-10-06T23:56:09.675Z,19.38
2018-10-06T23:58:38.056Z,19.36
